Time;durP1;ratioP1;P1;durP2;ratioP2;P2;SDS_P1;SDS_P2;PMS_P1;PMS_P2;Temp;Humidity;BMP_temperature;BMP_pressure;BME280_temperature;BME280_humidity;BME280_pressure;Samples;Min_cycle;Max_cycle;Signal;HPM_P1;HPM_P2
2023/04/30 00:01:54;;;;;;;12.73;9.07;;;;;;;11.55;92.57;100974.75;5023685;28;20203;-77
2023/04/30 00:04:20;;;;;;;13.20;9.23;;;;;;;11.51;93.49;100967.59;5019354;28;20579;-77
2023/04/30 00:06:47;;;;;;;15.97;9.57;;;;;;;11.49;92.66;100974.63;5025200;28;20286;-77
2023/04/30 00:09:13;;;;;;;11.57;8.83;;;;;;;11.47;92.64;100968.41;5023875;28;20789;-75
2023/04/30 00:11:40;;;;;;;14.10;9.63;;;;;;;11.57;92.75;100975.66;5029437;28;20222;-79
2023/04/30 00:14:06;;;;;;;13.30;10.03;;;;;;;11.59;91.78;100973.94;5027955;28;20548;-76
2023/04/30 00:16:32;;;;;;;13.40;9.23;;;;;;;11.63;91.42;100974.03;5025386;28;20205;-80
2023/04/30 00:18:59;;;;;;;14.07;10.20;;;;;;;11.59;91.23;100971.28;5027872;28;20283;-78
2023/04/30 00:21:25;;;;;;;14.60;9.43;;;;;;;11.55;91.64;100964.13;5023662;28;20276;-79
2023/04/30 00:23:52;;;;;;;13.90;9.60;;;;;;;11.54;91.73;100970.31;5026295;28;20205;-78
2023/04/30 00:26:18;;;;;;;12.47;9.60;;;;;;;11.52;91.59;100965.84;5029813;28;20228;-81
2023/04/30 00:28:44;;;;;;;15.03;10.17;;;;;;;11.56;91.30;100965.03;5029529;28;20255;-80
2023/04/30 00:31:10;;;;;;;13.40;9.53;;;;;;;11.49;90.99;100955.16;5028640;28;20469;-80
2023/04/30 00:33:37;;;;;;;15.67;10.13;;;;;;;11.56;90.95;100970.34;5023443;28;20192;-80
2023/04/30 00:36:04;;;;;;;14.30;10.73;;;;;;;11.56;90.73;100970.34;5030475;28;20212;-81
2023/04/30 00:38:30;;;;;;;15.23;10.37;;;;;;;11.62;90.53;100967.81;5028954;28;20243;-79
2023/04/30 00:40:57;;;;;;;16.27;10.50;;;;;;;11.64;90.07;100970.50;5010989;28;20205;-79
2023/04/30 00:43:23;;;;;;;15.10;10.80;;;;;;;11.61;90.17;100969.59;5027126;28;20342;-80
2023/04/30 00:45:49;;;;;;;13.90;10.40;;;;;;;11.60;89.88;100970.41;5005024;28;20202;-80
2023/04/30 00:48:16;;;;;;;15.40;11.37;;;;;;;11.60;90.04;100977.47;5021296;28;20278;-77
2023/04/30 00:50:43;;;;;;;14.53;10.57;;;;;;;11.63;90.53;100976.66;5028978;28;20598;-77
2023/04/30 00:53:11;;;;;;;14.80;10.30;;;;;;;11.60;90.23;100981.03;5009396;28;20258;-77
2023/04/30 00:55:42;;;;;;;15.77;10.90;;;;;;;11.59;90.04;100973.03;5031042;28;20224;-76
2023/04/30 00:58:09;;;;;;;17.60;11.17;;;;;;;11.63;89.71;100980.22;5018214;28;20226;-77
2023/04/30 01:00:35;;;;;;;15.87;11.70;;;;;;;11.66;89.24;100980.28;5026787;28;20243;-73
2023/04/30 01:03:02;;;;;;;16.20;11.07;;;;;;;11.66;89.22;100980.28;5028494;28;20210;-75
2023/04/30 01:05:29;;;;;;;17.50;11.20;;;;;;;11.61;89.76;100981.94;5024455;28;20199;-76
2023/04/30 01:07:56;;;;;;;16.77;11.97;;;;;;;11.60;89.50;100975.72;5024954;28;20231;-80
2023/04/30 01:10:30;;;;;;;17.90;11.77;;;;;;;11.61;89.40;100982.84;5025576;28;20217;-75
2023/04/30 01:13:33;;;;;;;17.27;12.37;;;;;;;11.67;89.12;100974.09;5022120;28;20246;-76
2023/04/30 01:16:20;;;;;;;14.77;10.83;;;;;;;11.66;89.22;100979.38;5013508;28;20209;-81
2023/04/30 01:19:10;;;;;;;17.07;11.30;;;;;;;11.59;89.78;100973.03;5018822;28;20220;-79
2023/04/30 01:21:41;;;;;;;18.07;11.60;;;;;;;11.57;89.52;100969.47;4980452;28;20208;-78
2023/04/30 01:24:31;;;;;;;18.47;11.93;;;;;;;11.56;89.64;100972.97;5020567;28;20756;-79
2023/04/30 01:27:03;;;;;;;20.57;12.23;;;;;;;11.57;89.63;100975.66;5020791;28;20246;-78
2023/04/30 01:29:31;;;;;;;17.73;12.20;;;;;;;11.62;89.49;100965.16;5022253;28;20318;-79
2023/04/30 01:31:58;;;;;;;19.23;13.40;;;;;;;11.54;89.53;100967.66;5017711;28;20222;-79
2023/04/30 01:34:24;;;;;;;19.17;12.70;;;;;;;11.50;90.20;100962.25;5022180;28;20228;-79
2023/04/30 01:37:09;;;;;;;17.97;12.13;;;;;;;11.51;90.01;100961.41;5027712;28;20206;-80
2023/04/30 01:39:49;;;;;;;17.33;12.33;;;;;;;11.40;90.46;100961.19;5023726;28;20223;-81
2023/04/30 01:42:20;;;;;;;19.77;13.27;;;;;;;11.26;91.17;100952.09;5023003;28;20255;-73
2023/04/30 01:45:03;;;;;;;19.53;12.63;;;;;;;11.10;91.98;100963.25;5027487;28;20245;-80
2023/04/30 01:47:48;;;;;;;19.87;13.23;;;;;;;10.96;93.16;100961.22;5003282;28;20214;-78
2023/04/30 01:50:34;;;;;;;21.27;14.03;;;;;;;10.84;93.37;100963.63;5018974;28;20205;-77
2023/04/30 01:53:06;;;;;;;21.20;13.53;;;;;;;10.71;94.31;100965.94;5018521;28;20214;-78
2023/04/30 01:55:40;;;;;;;21.50;14.13;;;;;;;10.52;95.29;100975.25;5016751;28;20199;-76
2023/04/30 01:58:11;;;;;;;19.20;13.53;;;;;;;10.43;96.03;100975.94;5022567;28;20226;-74
2023/04/30 02:00:37;;;;;;;21.80;14.53;;;;;;;10.44;95.66;100976.81;5024208;28;20205;-72
2023/04/30 02:03:04;;;;;;;24.53;14.53;;;;;;;10.40;95.84;100978.47;5027876;28;20235;-74
2023/04/30 02:05:30;;;;;;;20.57;14.00;;;;;;;10.52;95.14;100994.66;5020116;28;20212;-72
2023/04/30 02:07:57;;;;;;;22.97;13.97;;;;;;;10.52;95.49;100994.66;5020919;28;20655;-72
2023/04/30 02:10:25;;;;;;;22.40;14.37;;;;;;;10.54;95.29;100997.34;5024223;28;20308;-73
2023/04/30 02:12:52;;;;;;;23.00;13.87;;;;;;;10.62;94.82;100995.78;5026395;28;20206;-74
2023/04/30 02:15:18;;;;;;;18.93;13.43;;;;;;;10.59;94.91;100993.06;5008692;28;20266;-72
2023/04/30 02:17:45;;;;;;;21.57;14.07;;;;;;;10.65;94.28;100991.44;5001501;28;20200;-76
2023/04/30 02:20:11;;;;;;;19.90;13.90;;;;;;;10.70;94.27;100994.19;5020499;28;20691;-76
2023/04/30 02:22:38;;;;;;;20.73;13.63;;;;;;;10.73;93.75;100985.41;5011459;28;20201;-73
2023/04/30 02:25:05;;;;;;;19.47;13.47;;;;;;;10.76;93.49;100993.41;5023187;28;20222;-78
2023/04/30 02:27:32;;;;;;;19.70;13.60;;;;;;;10.80;93.21;100993.53;5020450;28;20521;-73
2023/04/30 02:29:59;;;;;;;21.97;13.37;;;;;;;10.81;92.89;100991.78;5019725;28;20202;-80
2023/04/30 02:32:25;;;;;;;20.37;13.63;;;;;;;10.82;92.81;100993.59;5013477;28;20289;-76
2023/04/30 02:34:52;;;;;;;20.03;13.47;;;;;;;10.93;91.82;100992.94;5023517;28;20202;-74
2023/04/30 02:37:18;;;;;;;22.00;12.73;;;;;;;10.91;91.99;100984.06;5002227;28;20363;-74
2023/04/30 02:39:45;;;;;;;19.70;12.80;;;;;;;10.88;91.94;100981.34;5027599;28;20226;-73
2023/04/30 02:42:11;;;;;;;16.97;12.20;;;;;;;10.85;91.09;100976.00;5017496;28;20229;-73
2023/04/30 02:44:38;;;;;;;18.20;12.67;;;;;;;10.91;90.78;100986.72;5018696;28;20726;-73
2023/04/30 02:47:04;;;;;;;16.63;11.60;;;;;;;10.84;91.09;100982.16;5022871;28;20202;-74
2023/04/30 02:49:31;;;;;;;21.57;12.90;;;;;;;10.83;90.74;100980.38;5021816;28;20219;-72
2023/04/30 02:51:57;;;;;;;17.73;11.97;;;;;;;10.74;91.11;100990.75;5014061;28;20220;-74
2023/04/30 02:54:24;;;;;;;17.00;11.93;;;;;;;10.85;90.63;100983.06;5008621;28;20208;-74
2023/04/30 02:56:50;;;;;;;17.10;11.70;;;;;;;10.81;90.54;100979.44;5025495;28;20192;-74
2023/04/30 02:59:16;;;;;;;19.80;11.90;;;;;;;10.78;90.32;100989.06;5020973;28;20311;-73
2023/04/30 03:01:43;;;;;;;16.90;11.53;;;;;;;10.76;90.22;100990.78;5017479;28;21785;-73
2023/04/30 03:04:09;;;;;;;19.50;11.63;;;;;;;10.75;89.50;100987.22;5018474;28;20200;-73
2023/04/30 03:06:35;;;;;;;15.30;10.87;;;;;;;10.71;89.55;100990.66;5022919;28;20202;-73
2023/04/30 03:09:02;;;;;;;15.30;10.90;;;;;;;10.72;89.53;100992.47;5025740;28;20226;-72
2023/04/30 03:11:28;;;;;;;16.80;10.40;;;;;;;10.67;89.85;101005.59;5022047;28;20251;-74
2023/04/30 03:13:55;;;;;;;19.43;10.63;;;;;;;10.60;90.30;100994.84;5020138;28;20215;-80
2023/04/30 03:16:21;;;;;;;13.93;10.13;;;;;;;10.56;90.40;101000.94;5024818;28;20333;-70
2023/04/30 03:18:48;;;;;;;15.00;10.83;;;;;;;10.49;90.36;100988.41;5020782;28;20223;-71
2023/04/30 03:21:15;;;;;;;16.20;10.37;;;;;;;10.49;90.22;100981.38;5024320;28;20252;-71
2023/04/30 03:23:41;;;;;;;16.93;10.57;;;;;;;10.42;90.44;100981.19;5004905;28;20633;-70
2023/04/30 03:26:07;;;;;;;16.13;10.60;;;;;;;10.44;90.09;100980.38;5019294;28;20210;-71
2023/04/30 03:28:34;;;;;;;16.33;9.97;;;;;;;10.36;90.40;100989.84;5021736;28;20220;-71
2023/04/30 03:31:04;;;;;;;14.70;10.33;;;;;;;10.38;90.43;100985.50;5021588;28;20230;-71
2023/04/30 03:33:33;;;;;;;19.03;11.10;;;;;;;10.39;90.78;100995.22;5017984;28;20200;-70
2023/04/30 03:36:00;;;;;;;15.07;10.53;;;;;;;10.35;91.01;100988.06;5017883;28;20257;-71
2023/04/30 03:38:26;;;;;;;16.00;10.67;;;;;;;10.36;90.32;100996.03;5023648;28;20274;-73
2023/04/30 03:40:52;;;;;;;14.43;10.20;;;;;;;10.33;91.81;100989.78;5021597;28;20191;-70
2023/04/30 03:43:19;;;;;;;15.70;10.63;;;;;;;10.38;90.85;100988.13;5002985;28;20594;-78
2023/04/30 03:45:46;;;;;;;16.50;11.33;;;;;;;10.36;90.75;100987.22;5019380;28;20714;-75
2023/04/30 03:48:12;;;;;;;17.47;10.77;;;;;;;10.43;90.59;100988.28;4998708;28;20227;-72
2023/04/30 03:50:39;;;;;;;17.90;11.33;;;;;;;10.46;90.43;100989.25;5022528;28;20199;-78
2023/04/30 03:53:05;;;;;;;15.67;10.67;;;;;;;10.42;90.58;100990.03;5021100;28;20289;-79
2023/04/30 03:55:32;;;;;;;15.87;11.07;;;;;;;10.42;90.20;100990.03;5004215;28;20192;-71
2023/04/30 03:57:59;;;;;;;16.43;10.50;;;;;;;10.40;90.73;100985.53;5016777;28;20242;-71
2023/04/30 04:00:25;;;;;;;18.47;10.80;;;;;;;10.39;90.51;100989.03;5015971;28;20210;-71
2023/04/30 04:02:52;;;;;;;16.10;11.13;;;;;;;10.37;90.80;100989.00;5019173;28;20251;-71
2023/04/30 04:05:18;;;;;;;15.33;10.77;;;;;;;10.40;91.25;100980.22;5021075;28;20198;-71
2023/04/30 04:07:44;;;;;;;16.83;10.97;;;;;;;10.36;90.58;100990.75;5018185;28;20738;-71
2023/04/30 04:10:11;;;;;;;15.73;10.70;;;;;;;10.37;90.92;100989.00;5021655;28;20280;-71
2023/04/30 04:12:37;;;;;;;18.30;10.90;;;;;;;10.38;90.92;100996.06;5005824;28;20222;-71
2023/04/30 04:15:04;;;;;;;14.87;10.53;;;;;;;10.41;91.15;101003.22;5012115;28;20244;-72
2023/04/30 04:17:31;;;;;;;17.03;10.73;;;;;;;10.38;90.91;100995.19;5016215;28;20250;-73
2023/04/30 04:19:58;;;;;;;16.13;10.70;;;;;;;10.41;91.26;100998.84;5023724;28;20241;-70
2023/04/30 04:22:25;;;;;;;18.90;11.20;;;;;;;10.37;91.14;101004.88;5021679;28;20228;-71
2023/04/30 04:24:51;;;;;;;16.73;11.07;;;;;;;10.40;90.96;101001.41;5023607;28;20229;-71
2023/04/30 04:27:19;;;;;;;17.13;11.37;;;;;;;10.35;91.26;100996.91;5015868;28;20763;-71
2023/04/30 04:29:46;;;;;;;17.23;10.50;;;;;;;10.40;90.80;101007.59;5017339;28;20252;-71
2023/04/30 04:32:13;;;;;;;17.80;11.03;;;;;;;10.41;90.88;101005.88;5004412;28;20230;-71
2023/04/30 04:34:42;;;;;;;15.80;10.70;;;;;;;10.42;91.34;101011.22;5016049;28;20200;-71
2023/04/30 04:37:08;;;;;;;17.80;10.37;;;;;;;10.45;91.59;101013.03;5014294;28;20205;-73
2023/04/30 04:39:36;;;;;;;13.93;10.20;;;;;;;10.54;90.44;101021.19;5019329;28;20226;-73
2023/04/30 04:42:03;;;;;;;13.67;10.03;;;;;;;10.51;90.75;101014.06;5023332;28;20207;-73
2023/04/30 04:44:30;;;;;;;15.97;10.77;;;;;;;10.59;90.30;101019.53;5016121;28;20228;-77
2023/04/30 04:46:56;;;;;;;15.27;10.83;;;;;;;10.72;89.88;101018.94;5013010;28;20657;-74
2023/04/30 04:49:23;;;;;;;15.70;10.07;;;;;;;10.78;89.23;101019.09;5020962;28;20254;-74
2023/04/30 04:51:49;;;;;;;15.57;10.60;;;;;;;10.80;89.22;101024.41;5018474;28;20292;-71
2023/04/30 04:54:15;;;;;;;13.90;9.90;;;;;;;10.86;89.08;101029.88;5021930;28;20207;-73
2023/04/30 04:56:42;;;;;;;17.27;9.87;;;;;;;10.90;87.86;101037.03;5013658;28;20331;-73
2023/04/30 04:59:08;;;;;;;14.07;9.80;;;;;;;11.00;88.20;101033.72;5024951;28;20228;-74
2023/04/30 05:01:35;;;;;;;15.83;9.90;;;;;;;11.07;86.40;101026.78;5021522;28;20194;-73
2023/04/30 05:04:01;;;;;;;14.13;9.53;;;;;;;11.19;85.66;101020.00;5009263;28;20300;-74
2023/04/30 05:06:28;;;;;;;13.50;9.20;;;;;;;11.32;84.83;101028.22;5017649;28;20213;-74
2023/04/30 05:08:54;;;;;;;14.63;7.80;;;;;;;11.36;83.78;101023.00;5024586;28;20252;-78
2023/04/30 05:11:21;;;;;;;12.60;7.93;;;;;;;11.47;81.75;101026.75;5024324;28;20244;-74
2023/04/30 05:13:47;;;;;;;12.03;7.23;;;;;;;11.53;79.07;101021.56;5022634;28;20650;-77
2023/04/30 05:16:15;;;;;;;12.93;7.07;;;;;;;11.65;77.85;101026.25;5028439;28;20203;-78
2023/04/30 05:18:41;;;;;;;9.63;6.77;;;;;;;11.79;77.31;101011.50;5021065;28;20214;-74
2023/04/30 05:21:08;;;;;;;12.17;6.43;;;;;;;11.97;76.26;101016.22;5002456;28;20215;-79
2023/04/30 05:23:34;;;;;;;8.47;6.20;;;;;;;12.07;75.25;101017.31;5024386;28;20568;-79
2023/04/30 05:26:01;;;;;;;10.20;6.20;;;;;;;12.27;75.96;101026.50;5025843;28;20197;-79
2023/04/30 05:28:27;;;;;;;10.93;6.10;;;;;;;12.45;74.00;101028.56;5022691;28;20240;-80
2023/04/30 05:30:54;;;;;;;12.67;6.77;;;;;;;12.65;72.85;101032.41;5020952;28;20201;-79
2023/04/30 05:33:20;;;;;;;9.70;5.73;;;;;;;13.33;70.43;101026.31;5023025;28;20647;-75
2023/04/30 05:35:47;;;;;;;11.33;6.90;;;;;;;13.88;67.81;101022.50;5025286;28;20208;-74
2023/04/30 05:38:13;;;;;;;9.40;5.80;;;;;;;13.59;68.39;101027.50;5025495;28;20565;-72
2023/04/30 05:40:39;;;;;;;9.80;5.90;;;;;;;13.26;69.56;101029.78;5026795;28;20658;-72
2023/04/30 05:43:06;;;;;;;10.80;6.40;;;;;;;13.37;69.19;101023.69;5028867;28;20700;-74
2023/04/30 05:45:32;;;;;;;8.23;5.70;;;;;;;14.45;65.41;101031.03;5023324;28;20205;-73
2023/04/30 05:48:00;;;;;;;12.00;6.03;;;;;;;14.97;62.30;101030.50;5026608;28;20479;-71
2023/04/30 05:50:27;;;;;;;10.20;6.10;;;;;;;15.46;61.24;101016.50;5024018;28;20739;-75
2023/04/30 05:52:53;;;;;;;11.53;6.50;;;;;;;14.34;63.14;101028.22;5022607;28;20219;-74
2023/04/30 05:55:19;;;;;;;10.60;6.30;;;;;;;13.27;67.73;101020.91;5024467;28;20302;-74
2023/04/30 05:57:46;;;;;;;12.47;6.33;;;;;;;12.61;71.09;101029.69;5024249;28;20202;-78
2023/04/30 06:00:13;;;;;;;11.03;6.57;;;;;;;12.32;72.39;101031.88;5024180;28;20207;-76
2023/04/30 06:02:40;;;;;;;9.23;6.10;;;;;;;12.08;73.54;101035.91;5024144;28;20666;-82
2023/04/30 06:05:07;;;;;;;10.00;6.57;;;;;;;12.02;74.30;101037.56;5024088;28;20201;-78
2023/04/30 06:07:34;;;;;;;10.17;5.70;;;;;;;12.08;74.10;101032.38;5026600;28;20202;-82
2023/04/30 06:10:02;;;;;;;8.63;6.00;;;;;;;12.07;73.82;101031.47;5024822;28;20211;-79
2023/04/30 06:12:28;;;;;;;10.90;6.23;;;;;;;12.04;74.27;101028.78;5025547;28;20216;-80
2023/04/30 06:14:54;;;;;;;10.97;5.97;;;;;;;12.03;74.33;101026.97;5023975;28;20251;-80
2023/04/30 06:17:21;;;;;;;10.50;6.10;;;;;;;12.00;74.27;101020.69;5025852;28;20248;-82
2023/04/30 06:19:47;;;;;;;10.47;5.90;;;;;;;12.07;74.14;101035.91;4998568;28;20215;-80
2023/04/30 06:22:16;;;;;;;10.07;5.73;;;;;;;12.08;73.24;101027.97;5024836;28;20229;-80
2023/04/30 06:24:42;;;;;;;9.03;6.00;;;;;;;12.10;73.38;101041.25;5026948;28;20230;-82
2023/04/30 06:27:09;;;;;;;8.30;5.80;;;;;;;12.07;72.88;101034.13;5023624;28;20591;-78
2023/04/30 06:29:35;;;;;;;11.47;6.20;;;;;;;12.17;72.92;101029.88;5019920;28;20249;-82
2023/04/30 06:32:01;;;;;;;9.23;6.10;;;;;;;12.32;72.18;101039.84;5020594;28;20250;-79
2023/04/30 06:34:28;;;;;;;9.23;5.60;;;;;;;12.38;71.62;101038.19;5020750;28;20199;-79
2023/04/30 06:36:54;;;;;;;8.13;5.63;;;;;;;12.41;70.73;101042.69;5021463;28;20209;-80
2023/04/30 06:39:20;;;;;;;8.37;5.70;;;;;;;12.43;70.19;101041.84;5024983;28;20216;-80
2023/04/30 06:41:47;;;;;;;8.90;5.00;;;;;;;12.41;69.70;101043.56;5021342;28;20199;-79
2023/04/30 06:44:13;;;;;;;9.53;5.23;;;;;;;12.40;69.80;101038.19;5026217;28;20260;-79
2023/04/30 06:46:40;;;;;;;7.80;4.87;;;;;;;12.43;69.68;101038.28;5024596;28;20202;-81
2023/04/30 06:49:06;;;;;;;6.13;4.43;;;;;;;12.50;69.98;101033.09;5024378;28;20740;-80
2023/04/30 06:51:33;;;;;;;7.63;4.70;;;;;;;12.63;69.37;101035.91;5022817;28;20202;-80
2023/04/30 06:53:59;;;;;;;6.73;4.53;;;;;;;13.27;67.62;101039.53;5018986;28;20273;-77
2023/04/30 06:56:25;;;;;;;7.70;4.93;;;;;;;14.53;62.28;101046.22;5023256;28;20206;-77
2023/04/30 06:58:52;;;;;;;6.10;4.40;;;;;;;15.78;58.15;101021.97;5025910;28;20274;-74
2023/04/30 07:01:19;;;;;;;6.17;4.60;;;;;;;15.68;56.65;101030.84;5019024;28;20195;-73
2023/04/30 07:03:45;;;;;;;7.33;4.20;;;;;;;16.35;55.38;101030.94;5008565;28;20195;-73
2023/04/30 07:06:12;;;;;;;6.67;4.10;;;;;;;17.79;49.42;101029.72;5003813;28;20210;-72
2023/04/30 07:08:40;;;;;;;7.17;4.33;;;;;;;19.09;46.01;101026.84;5026852;28;20225;-72
2023/04/30 07:11:06;;;;;;;8.73;3.93;;;;;;;19.61;42.44;101028.91;5018473;28;20223;-73
2023/04/30 07:13:33;;;;;;;5.60;3.80;;;;;;;20.33;39.82;101026.94;5005752;28;20629;-72
2023/04/30 07:15:59;;;;;;;8.43;3.60;;;;;;;19.65;40.98;101022.59;5024269;28;20286;-73
2023/04/30 07:18:25;;;;;;;5.33;3.90;;;;;;;20.21;39.63;101034.31;5015370;28;20231;-71
2023/04/30 07:20:52;;;;;;;6.70;3.20;;;;;;;20.62;37.85;101029.16;5018175;28;20200;-73
2023/04/30 07:23:18;;;;;;;5.20;3.50;;;;;;;19.89;38.21;101030.31;5024809;28;20192;-71
2023/04/30 07:25:47;;;;;;;7.00;3.40;;;;;;;18.43;41.90;101034.63;5008193;28;20210;-72
2023/04/30 07:28:13;;;;;;;6.50;3.40;;;;;;;19.04;40.82;101024.19;5012878;28;20766;-70
2023/04/30 07:30:39;;;;;;;4.00;2.87;;;;;;;19.32;40.93;101032.84;5005525;28;20631;-70
2023/04/30 07:33:07;;;;;;;4.67;3.03;;;;;;;19.40;39.55;101030.94;5025705;28;20234;-74
2023/04/30 07:35:34;;;;;;;4.20;2.80;;;;;;;18.86;40.02;101024.41;5020160;28;20466;-70
2023/04/30 07:38:00;;;;;;;3.53;2.50;;;;;;;19.56;39.19;101023.59;5023962;28;20737;-72
2023/04/30 07:40:27;;;;;;;4.53;2.77;;;;;;;18.82;39.71;101033.41;5023637;28;20724;-72
2023/04/30 07:43:03;;;;;;;3.63;2.37;;;;;;;19.20;39.91;101030.28;5025438;28;20200;-71
2023/04/30 07:45:30;;;;;;;4.37;2.53;;;;;;;18.44;40.64;101026.56;5019444;28;20323;-73
2023/04/30 07:47:57;;;;;;;4.97;2.47;;;;;;;17.76;40.87;101025.25;5022205;28;20254;-73
2023/04/30 07:50:27;;;;;;;7.07;2.30;;;;;;;16.44;43.82;101025.59;5022494;28;20476;-73
2023/04/30 07:52:53;;;;;;;3.83;2.53;;;;;;;16.14;44.86;101031.84;5022278;28;20223;-74
2023/04/30 07:55:20;;;;;;;2.57;2.03;;;;;;;16.68;44.73;101024.72;4992978;28;20268;-72
2023/04/30 07:57:46;;;;;;;5.13;2.13;;;;;;;16.59;44.31;101028.25;5018494;28;20219;-70
2023/04/30 08:00:14;;;;;;;4.70;2.00;;;;;;;15.79;45.43;101021.09;5015689;28;20273;-74
2023/04/30 08:02:42;;;;;;;2.13;1.90;;;;;;;15.68;46.21;101020.16;5019160;28;20200;-72
2023/04/30 08:05:09;;;;;;;3.10;1.87;;;;;;;16.09;45.45;101022.91;5018955;28;20204;-73
2023/04/30 08:07:35;;;;;;;2.87;1.90;;;;;;;16.20;44.42;101035.41;5015256;28;20271;-73
2023/04/30 08:10:02;;;;;;;4.07;1.53;;;;;;;16.13;44.56;101035.41;5002886;28;20200;-72
2023/04/30 08:12:29;;;;;;;2.90;1.90;;;;;;;16.14;43.93;101024.69;4998421;28;20216;-73
2023/04/30 08:15:06;;;;;;;4.53;1.77;;;;;;;15.96;44.65;101038.03;5023508;28;20237;-74
2023/04/30 08:17:33;;;;;;;3.10;1.77;;;;;;;16.00;45.66;101037.13;5018308;28;20240;-72
2023/04/30 08:20:00;;;;;;;2.87;1.80;;;;;;;16.16;45.15;101027.38;5004810;28;20200;-73
2023/04/30 08:22:26;;;;;;;2.63;1.80;;;;;;;16.23;44.81;101035.41;5002148;28;20196;-72
2023/04/30 08:24:54;;;;;;;1.90;1.60;;;;;;;16.28;46.79;101025.59;5025080;28;20613;-72
2023/04/30 08:27:21;;;;;;;5.07;1.97;;;;;;;16.26;45.60;101022.03;5019913;28;20622;-72
2023/04/30 08:29:48;;;;;;;3.87;1.53;;;;;;;16.14;44.11;101022.03;5022212;28;20238;-73
2023/04/30 08:32:14;;;;;;;1.97;1.70;;;;;;;16.10;44.27;101024.69;5022456;28;20199;-71
2023/04/30 08:34:42;;;;;;;3.40;2.00;;;;;;;16.28;45.26;101024.69;5022549;28;20326;-72
2023/04/30 08:37:08;;;;;;;3.20;2.00;;;;;;;16.46;44.95;101029.19;5022894;28;20239;-73
2023/04/30 08:39:34;;;;;;;2.50;1.80;;;;;;;16.63;44.46;101032.72;5025027;28;20216;-73
2023/04/30 08:42:03;;;;;;;2.67;1.80;;;;;;;16.70;43.70;101026.50;5023026;28;20200;-73
2023/04/30 08:44:30;;;;;;;3.30;2.37;;;;;;;16.76;44.30;101022.91;5022995;28;20249;-73
2023/04/30 08:46:57;;;;;;;4.87;2.27;;;;;;;16.55;44.39;101023.81;5010919;28;20199;-74
2023/04/30 08:49:24;;;;;;;2.77;2.00;;;;;;;16.70;45.39;101025.59;5025983;28;20215;-72
2023/04/30 08:51:51;;;;;;;3.37;1.90;;;;;;;16.87;44.19;101031.84;5007842;28;20204;-73
2023/04/30 08:54:18;;;;;;;4.03;2.00;;;;;;;17.00;43.47;101027.34;5019280;28;20247;-73
2023/04/30 08:56:44;;;;;;;2.20;1.87;;;;;;;17.20;43.37;101018.31;5027057;28;20536;-73
2023/04/30 08:59:11;;;;;;;2.73;1.83;;;;;;;17.05;42.87;101018.41;5011243;28;20749;-73
2023/04/30 09:01:38;;;;;;;2.27;2.07;;;;;;;17.07;43.60;101031.78;5024099;28;20228;-73
2023/04/30 09:04:05;;;;;;;1.80;1.50;;;;;;;16.69;41.99;101037.19;5025652;28;20198;-73
2023/04/30 09:06:31;;;;;;;1.87;1.40;;;;;;;16.45;42.80;101044.31;5027827;28;20207;-72
2023/04/30 09:09:08;;;;;;;1.97;1.53;;;;;;;16.49;43.04;101031.84;5025399;28;20296;-73
2023/04/30 09:11:34;;;;;;;2.80;1.80;;;;;;;16.59;42.88;101031.81;5028175;28;20223;-73
2023/04/30 09:14:01;;;;;;;2.40;1.80;;;;;;;16.45;43.12;101028.28;5021970;28;20226;-72
2023/04/30 09:16:32;;;;;;;2.73;1.90;;;;;;;16.49;44.82;101023.81;5025903;28;20211;-72
2023/04/30 09:18:59;;;;;;;3.83;2.10;;;;;;;16.84;43.87;101019.34;5027985;28;20737;-73
2023/04/30 09:21:35;;;;;;;2.53;1.90;;;;;;;17.00;42.72;101017.53;5008904;28;22173;-73
2023/04/30 09:24:04;;;;;;;1.73;1.60;;;;;;;16.68;40.87;101030.94;5026527;28;20200;-73
2023/04/30 09:26:36;;;;;;;2.97;1.77;;;;;;;16.61;41.18;101029.16;5024223;28;20242;-73
2023/04/30 09:29:06;;;;;;;1.90;1.30;;;;;;;16.57;41.76;101019.34;5022404;28;20232;-72
2023/04/30 09:31:37;;;;;;;2.93;1.87;;;;;;;16.56;42.49;101023.81;5026169;28;20664;-73
2023/04/30 09:34:05;;;;;;;2.97;1.90;;;;;;;16.72;43.21;101024.69;5021482;28;20335;-73
2023/04/30 09:36:32;;;;;;;2.70;1.83;;;;;;;16.64;43.18;101021.13;5024047;28;20214;-73
2023/04/30 09:39:10;;;;;;;2.80;1.80;;;;;;;16.53;43.43;101014.91;5026918;28;20219;-73
2023/04/30 09:41:41;;;;;;;3.00;1.67;;;;;;;16.63;44.15;101008.63;5022441;28;20213;-72
2023/04/30 09:44:07;;;;;;;2.57;1.70;;;;;;;16.73;42.69;100997.06;5026800;28;20196;-72
2023/04/30 09:46:37;;;;;;;3.47;2.13;;;;;;;17.07;42.22;101008.56;5025857;28;20204;-73
2023/04/30 09:49:05;;;;;;;3.20;2.47;;;;;;;17.07;41.26;100997.88;5013635;28;20230;-73
2023/04/30 09:51:31;;;;;;;3.93;2.70;;;;;;;17.20;41.61;100990.66;5018384;28;20738;-72
2023/04/30 09:54:01;;;;;;;4.30;2.47;;;;;;;17.43;41.64;100995.94;5025129;28;20249;-73
2023/04/30 09:56:32;;;;;;;2.37;2.10;;;;;;;17.47;41.73;101000.38;5020001;28;20203;-74
2023/04/30 09:59:01;;;;;;;3.70;2.40;;;;;;;17.33;41.47;100991.53;5026851;28;20224;-73
2023/04/30 10:01:27;;;;;;;2.83;2.00;;;;;;;17.42;41.24;100991.47;5023413;28;20196;-75
2023/04/30 10:03:56;;;;;;;2.23;1.90;;;;;;;17.72;42.27;100996.72;5022815;28;20216;-75
2023/04/30 10:06:24;;;;;;;2.30;2.10;;;;;;;17.90;40.40;100994.78;5023817;28;20199;-75
2023/04/30 10:08:55;;;;;;;3.60;2.30;;;;;;;18.01;40.27;100990.25;5024442;28;20273;-75
2023/04/30 10:11:26;;;;;;;3.17;1.90;;;;;;;18.02;40.19;100986.69;5020147;28;20250;-72
2023/04/30 10:14:00;;;;;;;4.50;2.70;;;;;;;18.09;39.47;100978.59;5004992;28;20396;-72
2023/04/30 10:16:52;;;;;;;4.50;2.20;;;;;;;18.25;39.56;100978.44;5020225;28;20290;-73
2023/04/30 10:19:24;;;;;;;4.87;2.10;;;;;;;18.23;38.08;100975.78;5022530;28;20580;-72
2023/04/30 10:21:51;;;;;;;1.93;1.73;;;;;;;17.97;37.48;100975.97;5003812;28;20743;-73
2023/04/30 10:24:19;;;;;;;6.37;2.33;;;;;;;18.02;38.86;100967.94;5018604;28;20192;-74
2023/04/30 10:26:47;;;;;;;1.80;1.67;;;;;;;17.98;36.40;100967.03;5027656;28;20307;-74
2023/04/30 10:29:14;;;;;;;2.90;1.70;;;;;;;18.17;37.49;100974.03;5022750;28;20216;-72
2023/04/30 10:31:48;;;;;;;2.77;1.73;;;;;;;18.02;37.04;100967.94;5019857;28;20734;-73
2023/04/30 10:34:19;;;;;;;4.77;2.03;;;;;;;18.23;37.59;100946.28;5021053;28;20306;-72
2023/04/30 10:36:55;;;;;;;2.27;1.73;;;;;;;18.01;38.06;100966.13;5022917;28;20592;-72
2023/04/30 10:39:26;;;;;;;3.33;2.00;;;;;;;17.89;39.20;100953.72;5021083;28;20215;-72
2023/04/30 10:42:01;;;;;;;3.93;1.53;;;;;;;18.15;36.98;100953.50;5022401;28;20203;-74
2023/04/30 10:44:31;;;;;;;3.60;1.63;;;;;;;18.36;36.48;100941.69;5021314;28;20766;-72
2023/04/30 10:46:59;;;;;;;1.97;1.40;;;;;;;18.49;35.70;100951.41;5015755;28;20672;-72
2023/04/30 10:49:26;;;;;;;3.27;1.50;;;;;;;18.40;35.16;100947.00;5007068;28;20712;-72
2023/04/30 10:51:57;;;;;;;1.37;1.13;;;;;;;18.22;35.93;100935.56;5024566;28;20230;-73
2023/04/30 10:54:28;;;;;;;2.37;1.40;;;;;;;18.50;36.21;100947.84;5024511;28;20602;-71
2023/04/30 10:57:16;;;;;;;5.37;3.17;;;;;;;18.70;36.42;100943.16;5021200;28;20208;-72
2023/04/30 10:59:50;;;;;;;4.47;1.87;;;;;;;18.68;36.04;100936.94;5024884;28;20794;-72
2023/04/30 11:02:16;;;;;;;4.10;2.27;;;;;;;18.84;36.54;100947.50;5006387;28;20196;-73
2023/04/30 11:05:12;;;;;;;3.83;2.27;;;;;;;19.09;36.62;100928.38;5020956;28;20922;-72
2023/04/30 11:07:55;;;;;;;1.48;1.30;;;;;;;19.20;34.69;100922.84;5022871;28;20709;-73
2023/04/30 11:10:24;;;;;;;2.33;1.40;;;;;;;18.84;35.30;100918.88;5017160;28;20291;-72
2023/04/30 11:12:52;;;;;;;1.60;1.50;;;;;;;18.71;36.05;100936.88;5016019;28;20355;-72
2023/04/30 11:15:23;;;;;;;1.87;1.63;;;;;;;18.51;37.73;100928.16;5020149;28;20340;-73
2023/04/30 11:17:49;;;;;;;4.40;2.57;;;;;;;18.47;38.54;100921.03;5021831;28;20226;-73
2023/04/30 11:20:21;;;;;;;2.50;2.20;;;;;;;18.87;38.05;100913.47;5022196;28;20196;-73
2023/04/30 11:23:06;;;;;;;4.20;1.50;;;;;;;19.01;37.17;100907.91;5021394;28;20204;-71